METAR
MSSS 182050Z 11009KT 9999 FEW047 32/20 Q1013 A2992 MSSS 181950Z 14005KT 9999 FEW050 32/21 Q1013 A2993 MSSS 181850Z 10003KT 9999 SCT043 31/21 Q1015 A2997 TAF MSSS 182125Z 1900/1924 18004KT 9999 FEW047 TX32/1920Z TN23/1912Z FM190400 33006KT CAVOK FM191200 9999 FEW020 FM191800 17008KT 9999 SCT033 FEW040CB
TAF
MSSS 182125Z 1900/1924 18004KT 9999 FEW047 TX32/1920Z TN23/1912Z FM190400 33006KT CAVOK FM191200 9999 FEW020 FM191800 17008KT 9999 SCT033 FEW040CB

Cámaras Aeroclub

Norte

Este

Sur

Oeste

AIS/AIP El Salvador

Autoridad de Aviación Civil (AAC) El Salvador

VER DOCUMENTO